createdAt,value
2022-09-01T00:00:06.217Z,20.54
2022-09-01T00:02:34.843Z,20.53
2022-09-01T00:05:07.187Z,20.52
2022-09-01T00:07:35.968Z,20.50
2022-09-01T00:10:07.567Z,20.49
2022-09-01T00:12:36.996Z,20.49
2022-09-01T00:15:09.032Z,20.45
2022-09-01T00:17:37.987Z,20.40
2022-09-01T00:20:06.896Z,20.51
2022-09-01T00:22:35.154Z,20.54
2022-09-01T00:25:04.035Z,20.60
2022-09-01T00:27:32.559Z,20.60
2022-09-01T00:30:01.739Z,20.46
2022-09-01T00:32:29.984Z,20.38
2022-09-01T00:34:58.177Z,20.31
2022-09-01T00:37:26.416Z,20.35
2022-09-01T00:39:57.339Z,20.36
2022-09-01T00:42:25.562Z,20.41
2022-09-01T00:44:53.930Z,20.41
2022-09-01T00:47:25.266Z,20.37
2022-09-01T00:49:54.314Z,20.26
2022-09-01T00:52:44.827Z,20.27
2022-09-01T00:55:22.682Z,20.27
2022-09-01T00:57:51.471Z,20.27
2022-09-01T01:00:25.538Z,20.27
2022-09-01T01:02:56.194Z,20.24
2022-09-01T01:05:40.550Z,20.23
2022-09-01T01:08:12.110Z,20.20
2022-09-01T01:10:42.944Z,20.21
2022-09-01T01:13:16.103Z,20.20
2022-09-01T01:15:44.892Z,20.23
2022-09-01T01:18:14.708Z,20.29
2022-09-01T01:21:06.337Z,20.31
2022-09-01T01:23:39.631Z,20.36
2022-09-01T01:26:12.199Z,20.35
2022-09-01T01:28:44.290Z,20.29
2022-09-01T01:31:18.509Z,20.28
2022-09-01T01:33:53.048Z,20.33
2022-09-01T01:36:32.662Z,20.33
2022-09-01T01:39:11.880Z,20.29
2022-09-01T01:41:45.274Z,20.31
2022-09-01T01:44:19.172Z,20.34
2022-09-01T01:46:53.136Z,20.31
2022-09-01T01:49:24.499Z,20.31
2022-09-01T01:51:56.239Z,20.28
2022-09-01T01:54:32.216Z,20.29
2022-09-01T01:57:04.425Z,20.31
2022-09-01T01:59:33.849Z,20.30
2022-09-01T02:02:03.759Z,20.29
2022-09-01T02:04:34.187Z,20.36
2022-09-01T02:07:13.391Z,20.37
2022-09-01T02:09:48.132Z,20.32
2022-09-01T02:12:19.733Z,20.35
2022-09-01T02:14:48.622Z,20.37
2022-09-01T02:17:20.391Z,20.38
2022-09-01T02:19:49.537Z,20.42
2022-09-01T02:22:19.828Z,20.47
2022-09-01T02:24:49.222Z,20.50
2022-09-01T02:27:25.869Z,20.51
2022-09-01T02:29:58.783Z,20.54
2022-09-01T02:32:27.323Z,20.61
2022-09-01T02:35:01.382Z,20.61
2022-09-01T02:37:29.805Z,20.53
2022-09-01T02:39:58.136Z,20.58
2022-09-01T02:42:29.652Z,20.65
2022-09-01T02:45:02.656Z,20.62
2022-09-01T02:47:31.336Z,20.51
2022-09-01T02:50:01.951Z,20.45
2022-09-01T02:52:39.383Z,20.42
2022-09-01T02:55:09.644Z,20.48
2022-09-01T02:57:38.365Z,20.49
2022-09-01T03:00:20.810Z,20.49
2022-09-01T03:02:52.950Z,20.51
2022-09-01T03:05:25.409Z,20.55
2022-09-01T03:07:57.967Z,20.56
2022-09-01T03:10:35.467Z,20.57
2022-09-01T03:13:09.059Z,20.55
2022-09-01T03:15:38.631Z,20.58
2022-09-01T03:18:08.467Z,20.59
2022-09-01T03:20:43.436Z,20.63
2022-09-01T03:23:15.607Z,20.64
2022-09-01T03:25:49.322Z,20.65
2022-09-01T03:28:17.735Z,20.64
2022-09-01T03:30:49.710Z,20.63
2022-09-01T03:33:20.208Z,20.63
2022-09-01T03:35:49.759Z,20.64
2022-09-01T03:38:24.377Z,20.64
2022-09-01T03:41:02.196Z,20.64
2022-09-01T03:43:36.152Z,20.61
2022-09-01T03:46:05.703Z,20.61
2022-09-01T03:48:34.468Z,20.69
2022-09-01T03:51:03.257Z,20.75
2022-09-01T03:53:35.096Z,20.77
2022-09-01T03:56:04.220Z,20.76
2022-09-01T03:58:34.072Z,20.84
2022-09-01T04:01:03.089Z,20.92
2022-09-01T04:03:34.642Z,21.02
2022-09-01T04:06:04.756Z,20.99
2022-09-01T04:08:35.080Z,20.95
2022-09-01T04:11:10.807Z,20.92
2022-09-01T04:13:41.414Z,20.88
2022-09-01T04:16:38.906Z,20.86
2022-09-01T04:19:16.100Z,20.86
2022-09-01T04:21:45.920Z,20.84
2022-09-01T04:24:15.406Z,20.78
2022-09-01T04:26:47.069Z,20.77
2022-09-01T04:29:19.479Z,20.72
2022-09-01T04:31:52.069Z,20.72
2022-09-01T04:34:22.641Z,20.69
2022-09-01T04:36:56.862Z,20.71
2022-09-01T04:39:25.439Z,20.70
2022-09-01T04:41:55.452Z,20.73
2022-09-01T04:44:27.990Z,20.78
2022-09-01T04:46:57.207Z,20.79
2022-09-01T04:49:26.410Z,20.72
2022-09-01T04:51:54.906Z,20.68
2022-09-01T04:54:24.933Z,20.67
2022-09-01T04:56:55.029Z,20.62
2022-09-01T04:59:27.139Z,20.66
2022-09-01T05:02:00.695Z,20.64
2022-09-01T05:04:33.946Z,20.66
2022-09-01T05:07:05.546Z,20.69
2022-09-01T05:09:39.458Z,20.65
2022-09-01T05:12:27.638Z,20.63
2022-09-01T05:14:56.137Z,20.68
2022-09-01T05:17:29.131Z,20.69
2022-09-01T05:19:58.089Z,20.70
2022-09-01T05:22:27.063Z,20.78
2022-09-01T05:25:13.174Z,20.83
2022-09-01T05:27:52.782Z,20.83
2022-09-01T05:30:24.062Z,20.85
2022-09-01T05:32:55.116Z,20.83
2022-09-01T05:35:32.539Z,20.91
2022-09-01T05:38:02.545Z,20.92
2022-09-01T05:40:30.921Z,20.91
2022-09-01T05:42:59.396Z,20.87
2022-09-01T05:45:28.029Z,20.92
2022-09-01T05:47:57.133Z,20.94
2022-09-01T05:50:26.711Z,20.97
2022-09-01T05:52:57.681Z,21.01
2022-09-01T05:55:27.711Z,21.05
2022-09-01T05:57:57.248Z,21.10
2022-09-01T06:00:25.538Z,21.12
2022-09-01T06:02:54.832Z,21.13
2022-09-01T06:05:23.794Z,21.16
2022-09-01T06:07:55.350Z,21.13
2022-09-01T06:10:23.693Z,21.20
2022-09-01T06:12:54.486Z,21.22
2022-09-01T06:15:24.754Z,21.18
2022-09-01T06:17:54.670Z,21.11
2022-09-01T06:20:23.198Z,21.15
2022-09-01T06:22:53.194Z,21.10
2022-09-01T06:25:22.444Z,21.13
2022-09-01T06:27:52.471Z,21.16
2022-09-01T06:30:24.393Z,21.25
2022-09-01T06:33:10.875Z,21.29
2022-09-01T06:35:44.877Z,21.33
2022-09-01T06:38:15.405Z,21.35
2022-09-01T06:40:46.489Z,21.44
2022-09-01T06:43:20.575Z,21.45
2022-09-01T06:45:55.251Z,21.54
2022-09-01T06:48:30.734Z,21.65
2022-09-01T06:51:19.165Z,21.74
2022-09-01T06:53:56.770Z,21.84
2022-09-01T06:56:33.865Z,21.93
2022-09-01T06:59:10.146Z,21.88
2022-09-01T07:01:40.050Z,21.95
2022-09-01T07:13:10.151Z,22.23
2022-09-01T07:18:34.028Z,22.40
2022-09-01T07:21:36.621Z,22.47
2022-09-01T07:24:13.229Z,22.58
2022-09-01T07:26:55.427Z,22.76
2022-09-01T07:29:25.744Z,22.83
2022-09-01T07:34:47.840Z,23.10
2022-09-01T07:42:58.034Z,22.04
2022-09-01T07:43:32.659Z,22.87
2022-09-01T07:46:37.573Z,22.89
2022-09-01T07:52:03.835Z,22.97
2022-09-01T07:54:34.821Z,22.96
2022-09-01T07:57:04.432Z,23.04
2022-09-01T07:59:36.115Z,23.08
2022-09-01T08:02:12.706Z,23.07
2022-09-01T08:04:42.298Z,23.06
2022-09-01T08:07:15.493Z,23.02
2022-09-01T08:09:44.810Z,23.06
2022-09-01T08:12:14.923Z,23.29
2022-09-01T08:15:12.721Z,23.38
2022-09-01T08:17:58.049Z,23.55
2022-09-01T08:20:30.519Z,23.57
2022-09-01T08:23:11.158Z,23.71
2022-09-01T08:25:42.455Z,23.78
2022-09-01T08:28:14.315Z,23.69
2022-09-01T08:30:52.323Z,23.49
2022-09-01T08:33:22.863Z,23.60
2022-09-01T08:35:51.205Z,23.54
2022-09-01T08:38:20.679Z,23.40
2022-09-01T08:40:57.023Z,23.51
2022-09-01T08:43:56.168Z,23.50
2022-09-01T08:46:40.153Z,23.58
2022-09-01T08:49:25.837Z,23.92
2022-09-01T08:52:26.115Z,24.63
2022-09-01T08:55:25.877Z,25.03
2022-09-01T08:57:59.896Z,25.69
2022-09-01T09:00:36.989Z,25.88
2022-09-01T09:03:27.149Z,25.91
2022-09-01T09:06:25.495Z,25.38
2022-09-01T09:09:08.715Z,25.26
2022-09-01T09:12:08.759Z,25.42
2022-09-01T09:15:04.013Z,25.61
2022-09-01T09:17:41.885Z,25.74
2022-09-01T09:20:11.061Z,25.30
2022-09-01T09:22:48.783Z,25.53
2022-09-01T09:25:19.145Z,25.62
2022-09-01T09:27:49.387Z,25.51
2022-09-01T09:30:30.024Z,25.40
2022-09-01T09:33:46.583Z,25.43
2022-09-01T09:36:37.588Z,25.34
2022-09-01T09:39:13.137Z,25.40
2022-09-01T09:41:43.107Z,25.47
2022-09-01T09:44:29.961Z,25.66
2022-09-01T09:46:58.446Z,26.13
2022-09-01T09:49:35.997Z,26.60
2022-09-01T09:52:09.028Z,26.34
2022-09-01T09:54:59.087Z,26.57
2022-09-01T09:57:32.250Z,26.72
2022-09-01T10:00:16.565Z,27.00
2022-09-01T10:02:46.435Z,26.92
2022-09-01T10:05:48.750Z,26.67
2022-09-01T10:08:45.302Z,26.48
2022-09-01T10:11:49.001Z,26.59
2022-09-01T10:14:35.481Z,26.85
2022-09-01T10:17:17.305Z,27.03
2022-09-01T10:20:25.368Z,27.27
2022-09-01T10:22:54.472Z,27.26
2022-09-01T10:25:35.429Z,27.43
2022-09-01T10:28:20.889Z,27.55
2022-09-01T10:30:50.840Z,27.46
2022-09-01T10:33:22.115Z,27.59
2022-09-01T10:35:53.518Z,27.56
2022-09-01T10:38:25.524Z,27.86
2022-09-01T10:41:14.682Z,28.10
2022-09-01T10:43:47.327Z,28.28
2022-09-01T10:46:25.883Z,28.51
2022-09-01T10:49:03.241Z,28.75
2022-09-01T10:51:50.174Z,28.68
2022-09-01T10:54:50.869Z,28.56
2022-09-01T10:57:31.945Z,28.58
2022-09-01T11:00:39.920Z,28.40
2022-09-01T11:03:31.830Z,28.59
2022-09-01T11:06:13.844Z,28.76
2022-09-01T11:08:56.555Z,28.38
2022-09-01T11:11:45.324Z,28.50
2022-09-01T11:14:26.534Z,28.91
2022-09-01T11:17:18.771Z,29.15
2022-09-01T11:20:00.857Z,29.40
2022-09-01T11:22:41.855Z,29.60
2022-09-01T11:25:48.537Z,28.98
2022-09-01T11:28:40.066Z,29.25
2022-09-01T11:31:14.402Z,29.61
2022-09-01T11:34:12.097Z,29.51
2022-09-01T11:36:47.280Z,29.88
2022-09-01T11:39:20.866Z,29.63
2022-09-01T11:42:04.422Z,29.58
2022-09-01T11:44:58.460Z,29.20
2022-09-01T11:47:45.742Z,29.13
2022-09-01T11:50:25.927Z,29.13
2022-09-01T11:53:15.855Z,29.83
2022-09-01T11:55:48.996Z,30.30
2022-09-01T11:58:27.543Z,30.32
2022-09-01T12:01:00.536Z,30.59
2022-09-01T12:03:30.499Z,30.35
2022-09-01T12:06:06.004Z,30.44
2022-09-01T12:08:38.607Z,30.18
2022-09-01T12:11:27.435Z,30.18
2022-09-01T12:14:00.269Z,30.48
2022-09-01T12:16:30.411Z,30.51
2022-09-01T12:18:59.574Z,30.80
2022-09-01T12:21:42.997Z,30.53
2022-09-01T12:24:22.709Z,30.58
2022-09-01T12:26:59.104Z,30.78
2022-09-01T12:29:31.997Z,30.72
2022-09-01T12:32:01.746Z,30.55
2022-09-01T12:34:49.116Z,30.44
2022-09-01T12:37:24.786Z,30.60
2022-09-01T12:39:58.405Z,30.12
2022-09-01T12:42:41.174Z,29.31
2022-09-01T12:45:11.039Z,29.34
2022-09-01T12:47:48.010Z,29.55
2022-09-01T12:50:16.941Z,29.99
2022-09-01T12:52:52.481Z,29.48
2022-09-01T12:55:50.268Z,29.01
2022-09-01T12:58:25.830Z,28.32
2022-09-01T13:00:59.489Z,28.17
2022-09-01T13:03:29.513Z,27.72
2022-09-01T13:06:00.322Z,27.56
2022-09-01T13:08:33.988Z,27.56
2022-09-01T13:11:11.209Z,27.38
2022-09-01T13:13:40.087Z,26.85
2022-09-01T13:16:13.027Z,26.67
2022-09-01T13:21:33.248Z,26.69
2022-09-01T13:24:05.007Z,26.74
2022-09-01T13:26:33.740Z,26.82
2022-09-01T13:29:02.008Z,26.72
2022-09-01T13:31:31.716Z,26.78
2022-09-01T13:34:22.202Z,26.73
2022-09-01T13:36:52.513Z,26.67
2022-09-01T13:39:22.867Z,26.82
2022-09-01T13:41:51.218Z,27.54
2022-09-01T13:44:19.882Z,27.75
2022-09-01T13:50:04.942Z,27.47
2022-09-01T13:52:24.701Z,27.61
2022-09-01T13:54:52.918Z,27.78
2022-09-01T13:57:21.303Z,27.94
2022-09-01T13:59:49.457Z,27.77
2022-09-01T14:02:17.656Z,27.68
2022-09-01T14:04:47.369Z,27.56
2022-09-01T14:07:16.275Z,27.44
2022-09-01T14:09:45.035Z,27.38
2022-09-01T14:12:13.723Z,27.13
2022-09-01T14:17:30.151Z,26.78
2022-09-01T14:20:02.008Z,26.70
2022-09-01T14:22:31.057Z,26.65
2022-09-01T14:25:01.303Z,26.74
2022-09-01T14:27:29.534Z,26.72
2022-09-01T14:29:57.800Z,26.69
2022-09-01T14:32:27.065Z,26.57
2022-09-01T14:34:56.504Z,26.50
2022-09-01T14:37:25.563Z,26.46
2022-09-01T14:39:55.851Z,26.40
2022-09-01T14:42:25.800Z,26.39
2022-09-01T14:44:54.203Z,26.07
2022-09-01T14:47:26.037Z,25.89
2022-09-01T14:49:54.772Z,25.74
2022-09-01T14:52:23.078Z,25.61
2022-09-01T14:54:51.703Z,25.54
2022-09-01T14:57:37.577Z,25.60
2022-09-01T15:00:12.547Z,25.64
2022-09-01T15:02:42.964Z,25.66
2022-09-01T15:05:12.771Z,25.68
2022-09-01T15:07:42.286Z,25.71
2022-09-01T15:10:16.077Z,25.76
2022-09-01T15:13:02.734Z,25.84
2022-09-01T15:15:31.521Z,26.00
2022-09-01T15:18:01.349Z,26.14
2022-09-01T15:20:48.618Z,26.14
2022-09-01T15:23:20.997Z,26.07
2022-09-01T15:25:52.831Z,26.07
2022-09-01T15:28:22.736Z,26.05
2022-09-01T15:30:54.280Z,26.07
2022-09-01T15:33:22.657Z,26.05
2022-09-01T15:35:50.847Z,25.99
2022-09-01T15:38:23.475Z,25.93
2022-09-01T15:40:58.517Z,25.93
2022-09-01T15:43:29.459Z,25.95
2022-09-01T15:46:00.525Z,25.90
2022-09-01T15:48:29.768Z,25.88
2022-09-01T15:51:23.763Z,25.93
2022-09-01T15:53:58.411Z,25.90
2022-09-01T15:56:27.435Z,25.86
2022-09-01T15:59:02.891Z,25.84
2022-09-01T16:01:35.619Z,25.79
2022-09-01T16:04:05.718Z,25.71
2022-09-01T16:06:34.721Z,25.74
2022-09-01T16:09:03.012Z,25.73
2022-09-01T16:11:31.295Z,25.71
2022-09-01T16:14:01.826Z,25.77
2022-09-01T16:16:45.074Z,25.79
2022-09-01T16:19:34.535Z,25.82
2022-09-01T16:22:20.463Z,25.80
2022-09-01T16:24:51.457Z,25.72
2022-09-01T16:27:22.671Z,25.71
2022-09-01T16:30:05.484Z,25.73
2022-09-01T16:32:34.429Z,25.73
2022-09-01T16:35:04.107Z,25.71
2022-09-01T16:37:48.484Z,25.65
2022-09-01T16:40:45.156Z,25.48
2022-09-01T16:43:41.496Z,25.41
2022-09-01T16:46:19.602Z,25.32
2022-09-01T16:49:34.257Z,25.27
2022-09-01T16:52:09.599Z,25.24
2022-09-01T16:55:13.201Z,25.13
2022-09-01T16:57:49.263Z,25.12
2022-09-01T17:00:32.835Z,25.09
2022-09-01T17:03:42.725Z,25.02
2022-09-01T17:06:35.330Z,24.97
2022-09-01T17:09:30.033Z,24.87
2022-09-01T17:12:42.106Z,24.78
2022-09-01T17:15:28.824Z,24.68
2022-09-01T17:18:06.354Z,24.66
2022-09-01T17:20:40.247Z,24.61
2022-09-01T17:23:15.537Z,24.52
2022-09-01T17:25:58.692Z,24.45
2022-09-01T17:28:38.981Z,24.36
2022-09-01T17:31:27.492Z,24.18
2022-09-01T17:33:58.745Z,24.10
2022-09-01T17:37:14.421Z,23.90
2022-09-01T17:40:15.321Z,23.79
2022-09-01T17:43:17.040Z,23.74
2022-09-01T17:45:57.624Z,23.64
2022-09-01T17:48:44.641Z,23.53
2022-09-01T17:51:43.589Z,23.50
2022-09-01T17:54:28.541Z,23.42
2022-09-01T17:56:59.791Z,23.33
2022-09-01T17:59:40.924Z,23.32
2022-09-01T18:02:11.887Z,23.23
2022-09-01T18:05:00.690Z,23.12
2022-09-01T18:08:11.480Z,22.97
2022-09-01T18:10:50.509Z,22.93
2022-09-01T18:13:52.751Z,22.85
2022-09-01T18:16:37.415Z,22.77
2022-09-01T18:19:24.517Z,22.64
2022-09-01T18:22:07.492Z,22.60
2022-09-01T18:24:57.834Z,22.58
2022-09-01T18:27:28.835Z,22.57
2022-09-01T18:30:01.298Z,22.54
2022-09-01T18:32:47.430Z,22.51
2022-09-01T18:35:44.356Z,22.54
2022-09-01T18:38:39.601Z,22.47
2022-09-01T18:41:24.454Z,22.50
2022-09-01T18:44:22.794Z,22.50
2022-09-01T18:47:24.473Z,22.51
2022-09-01T18:50:14.440Z,22.51
2022-09-01T18:53:06.040Z,22.53
2022-09-01T18:56:14.263Z,22.55
2022-09-01T18:59:19.657Z,22.52
2022-09-01T19:02:00.063Z,22.53
2022-09-01T19:04:42.491Z,22.55
2022-09-01T19:07:38.612Z,22.58
2022-09-01T19:10:38.210Z,22.56
2022-09-01T19:13:31.562Z,22.55
2022-09-01T19:16:08.964Z,22.58
2022-09-01T19:18:43.759Z,22.61
2022-09-01T19:21:22.530Z,22.63
2022-09-01T19:24:05.960Z,22.65
2022-09-01T19:26:41.964Z,22.69
2022-09-01T19:29:23.774Z,22.71
2022-09-01T19:31:59.805Z,22.72
2022-09-01T19:34:44.051Z,22.72
2022-09-01T19:37:13.515Z,22.70
2022-09-01T19:39:45.100Z,22.67
2022-09-01T19:42:35.636Z,22.61
2022-09-01T19:45:22.619Z,22.58
2022-09-01T19:48:09.425Z,22.59
2022-09-01T19:51:02.785Z,22.55
2022-09-01T19:53:46.813Z,22.55
2022-09-01T19:56:58.142Z,22.49
2022-09-01T19:59:41.695Z,22.41
2022-09-01T20:02:25.004Z,22.44
2022-09-01T20:05:11.915Z,22.48
2022-09-01T20:07:51.860Z,22.49
2022-09-01T20:10:35.973Z,22.43
2022-09-01T20:13:21.794Z,22.37
2022-09-01T20:16:02.358Z,22.33
2022-09-01T20:18:54.264Z,22.32
2022-09-01T20:21:25.492Z,22.36
2022-09-01T20:24:06.353Z,22.35
2022-09-01T20:26:56.287Z,22.34
2022-09-01T20:29:58.165Z,22.31
2022-09-01T20:32:46.067Z,22.34
2022-09-01T20:35:23.475Z,22.32
2022-09-01T20:38:06.008Z,22.31
2022-09-01T20:40:41.310Z,22.30
2022-09-01T20:43:16.099Z,22.30
2022-09-01T20:45:46.057Z,22.29
2022-09-01T20:48:17.743Z,22.23
2022-09-01T20:51:02.757Z,22.21
2022-09-01T20:54:02.575Z,22.21
2022-09-01T20:56:57.101Z,22.25
2022-09-01T20:59:36.538Z,22.26
2022-09-01T21:02:42.185Z,22.25
2022-09-01T21:05:25.234Z,22.25
2022-09-01T21:08:18.042Z,22.26
2022-09-01T21:11:12.094Z,22.24
2022-09-01T21:13:58.543Z,22.27
2022-09-01T21:16:57.269Z,22.29
2022-09-01T21:19:31.343Z,22.36
2022-09-01T21:22:18.472Z,22.30
2022-09-01T21:24:52.268Z,22.31
2022-09-01T21:27:27.505Z,22.32
2022-09-01T21:30:08.013Z,22.30
2022-09-01T21:32:36.767Z,22.31
2022-09-01T21:35:08.096Z,22.31
2022-09-01T21:37:36.348Z,22.36
2022-09-01T21:40:06.112Z,22.38
2022-09-01T21:42:38.622Z,22.39
2022-09-01T21:45:10.481Z,22.39
2022-09-01T21:47:41.043Z,22.38
2022-09-01T21:50:10.318Z,22.35
2022-09-01T21:52:38.688Z,22.34
2022-09-01T21:55:08.308Z,22.43
2022-09-01T21:57:36.739Z,22.40
2022-09-01T22:00:10.983Z,22.38
2022-09-01T22:02:44.208Z,22.33
2022-09-01T22:05:13.054Z,22.28
2022-09-01T22:07:46.691Z,22.27
2022-09-01T22:10:17.960Z,22.28
2022-09-01T22:12:48.046Z,22.27
2022-09-01T22:15:19.439Z,22.27
2022-09-01T22:17:48.574Z,22.26
2022-09-01T22:20:22.306Z,22.25
2022-09-01T22:22:51.142Z,22.20
2022-09-01T22:25:21.628Z,22.17
2022-09-01T22:27:49.876Z,22.14
2022-09-01T22:30:19.307Z,22.15
2022-09-01T22:32:48.073Z,22.14
2022-09-01T22:35:18.374Z,22.17
2022-09-01T22:37:47.139Z,22.15
2022-09-01T22:40:16.679Z,22.15
2022-09-01T22:42:45.257Z,22.13
2022-09-01T22:45:15.085Z,22.15
2022-09-01T22:47:43.884Z,22.12
2022-09-01T22:50:13.065Z,22.13
2022-09-01T22:52:41.354Z,22.08
2022-09-01T22:55:10.642Z,22.07
2022-09-01T22:57:39.073Z,22.01
2022-09-01T23:00:09.863Z,21.95
2022-09-01T23:02:38.179Z,21.89
2022-09-01T23:05:07.231Z,21.83
2022-09-01T23:07:39.628Z,21.73
2022-09-01T23:10:09.432Z,21.75
2022-09-01T23:12:37.633Z,21.75
2022-09-01T23:15:06.504Z,21.77
2022-09-01T23:17:36.785Z,21.79
2022-09-01T23:20:12.509Z,21.82
2022-09-01T23:22:44.769Z,21.82
2022-09-01T23:25:15.584Z,21.86
2022-09-01T23:27:43.908Z,21.86
2022-09-01T23:30:14.718Z,21.86
2022-09-01T23:32:43.024Z,21.87
2022-09-01T23:35:11.887Z,21.82
2022-09-01T23:37:40.069Z,21.80
2022-09-01T23:40:08.887Z,21.81
2022-09-01T23:42:37.360Z,21.81
2022-09-01T23:45:06.069Z,21.81
2022-09-01T23:47:34.319Z,21.80
2022-09-01T23:50:03.471Z,21.81
2022-09-01T23:52:31.739Z,21.81
2022-09-01T23:55:00.692Z,21.79
2022-09-01T23:57:28.916Z,21.77
2022-09-01T23:59:57.833Z,21.79
